Pueblo Pintado, New Mexico
Current Conditions -  °F | °C
As of 7:15 PM on Thursday 20 Nov 2014 (Local Time) from KLAM Reporting Station
Broken Clouds Broken Clouds  
Wind Chill: 42°   Ceiling: 7000
Heat Index: 42°   Visibility: 10mi
Dew Point:   Wind: 0mph
Humidity: 23%   Direction: NA
Pressure: 30.1"   Gusts: NA
Location:  36.0303°N, 107.257°W
Report Text: KLAM 210215Z AUTO 00000KT 10SM BKN070 06/M14 A3010 RMK AO2 T00551142
Loading
Personal Weather Stations






























Interactive Weather Map New forecast layout! Learn more

10-Day Weather Forecast

Advertisements
Track Severe Weather on mobile